Time;durP1;ratioP1;P1;durP2;ratioP2;P2;SDS_P1;SDS_P2;PMS_P1;PMS_P2;Temp;Humidity;BMP_temperature;BMP_pressure;BME280_temperature;BME280_humidity;BME280_pressure;Samples;Min_cycle;Max_cycle;Signal;HPM_P1;HPM_P2
2023/10/01 00:02:11;;;;;;;26.93;12.47;;;;;;;20.90;36.40;100199.96;1768437;81;21397;-80
2023/10/01 00:05:21;;;;;;;37.42;12.53;;;;;;;20.85;36.01;100195.69;1769591;81;21345;-80
2023/10/01 00:08:26;;;;;;;28.17;12.55;;;;;;;20.92;35.65;100199.16;1767921;81;21322;-80
2023/10/01 00:11:33;;;;;;;39.70;12.78;;;;;;;20.83;35.72;100200.63;1769451;81;21235;-80
2023/10/01 00:14:39;;;;;;;33.13;12.45;;;;;;;20.74;36.22;100199.33;1769436;81;21620;-79
2023/10/01 00:17:51;;;;;;;30.97;13.22;;;;;;;20.54;36.91;100197.80;1768977;81;21343;-80
2023/10/01 00:20:58;;;;;;;38.17;13.68;;;;;;;20.53;37.26;100196.13;1769493;81;21299;-80
2023/10/01 00:24:04;;;;;;;33.70;12.90;;;;;;;20.55;37.00;100198.09;1769657;81;22285;-80
2023/10/01 00:27:12;;;;;;;31.68;13.28;;;;;;;20.53;37.08;100196.13;1769289;81;22170;-80
2023/10/01 00:30:13;;;;;;;27.75;13.10;;;;;;;20.39;37.55;100193.28;1769533;81;21905;-81
2023/10/01 00:33:18;;;;;;;36.80;13.32;;;;;;;20.21;37.66;100196.19;1769727;81;21295;-80
2023/10/01 00:36:25;;;;;;;25.48;13.50;;;;;;;20.15;38.20;100199.39;1770288;81;21945;-80
2023/10/01 00:39:33;;;;;;;27.37;12.18;;;;;;;20.19;37.74;100194.21;1769903;81;21315;-80
2023/10/01 00:42:44;;;;;;;39.27;14.50;;;;;;;20.10;37.98;100195.11;1770233;81;21264;-80
2023/10/01 00:45:50;;;;;;;36.30;12.90;;;;;;;19.98;38.39;100192.32;1770004;81;21624;-80
2023/10/01 00:49:00;;;;;;;34.27;14.33;;;;;;;19.86;38.66;100188.72;1784398;79;21350;-80
2023/10/01 00:52:10;;;;;;;38.20;13.65;;;;;;;20.01;38.57;100183.52;1786360;80;21884;-80
2023/10/01 00:55:15;;;;;;;36.35;14.45;;;;;;;20.10;38.60;100189.02;1786215;80;21321;-80
2023/10/01 00:58:21;;;;;;;40.12;13.38;;;;;;;20.20;38.62;100190.34;1785977;80;21346;-80
2023/10/01 01:01:28;;;;;;;41.23;14.30;;;;;;;20.15;38.83;100186.36;1785120;80;21302;-80
2023/10/01 01:04:36;;;;;;;37.30;12.95;;;;;;;20.15;38.86;100178.58;1786341;80;21298;-79
2023/10/01 01:07:41;;;;;;;34.58;13.83;;;;;;;20.14;38.36;100179.66;1786087;80;21857;-80
2023/10/01 01:10:48;;;;;;;26.80;13.08;;;;;;;20.16;38.19;100181.64;1786179;80;21330;-80
2023/10/01 01:13:58;;;;;;;35.58;12.58;;;;;;;20.27;38.14;100179.39;1786313;80;21322;-80
2023/10/01 01:17:05;;;;;;;37.48;13.65;;;;;;;20.24;38.46;100180.44;1785900;80;21356;-80
2023/10/01 01:20:13;;;;;;;37.40;11.95;;;;;;;20.13;38.73;100173.79;1786173;80;21345;-80
2023/10/01 01:23:30;;;;;;;36.28;12.98;;;;;;;20.17;38.70;100169.44;1786099;80;21540;-80
2023/10/01 01:26:37;;;;;;;44.70;13.25;;;;;;;20.32;37.93;100167.55;1786171;80;21317;-79
2023/10/01 01:29:44;;;;;;;29.32;12.58;;;;;;;20.23;38.02;100171.78;1784823;80;21305;-80
2023/10/01 01:32:53;;;;;;;32.53;13.30;;;;;;;20.06;38.56;100175.86;1784892;80;21892;-80
2023/10/01 01:35:57;;;;;;;36.17;13.20;;;;;;;20.00;38.52;100180.45;1786202;80;21904;-80
2023/10/01 01:39:12;;;;;;;28.40;13.40;;;;;;;20.02;37.87;100179.66;1785568;80;21813;-79
2023/10/01 01:42:26;;;;;;;50.23;13.40;;;;;;;19.98;37.86;100177.60;1784872;80;21224;-80
2023/10/01 01:45:32;;;;;;;38.23;12.88;;;;;;;19.93;38.04;100175.55;1786426;80;21298;-80
2023/10/01 01:48:42;;;;;;;30.60;13.70;;;;;;;19.71;38.62;100169.73;1785368;80;21349;-80
2023/10/01 01:51:59;;;;;;;33.53;13.45;;;;;;;19.58;39.38;100169.95;1785161;80;21940;-80
2023/10/01 01:55:23;;;;;;;37.80;13.15;;;;;;;19.58;39.45;100168.02;1786658;80;21298;-80
2023/10/01 01:58:15;;;;;;;36.00;13.53;;;;;;;19.61;39.20;100170.33;1786749;80;21322;-80
2023/10/01 02:01:23;;;;;;;29.32;12.80;;;;;;;19.64;39.02;100172.63;1785370;80;21337;-80
2023/10/01 02:04:30;;;;;;;48.60;13.65;;;;;;;19.64;38.99;100170.41;1786118;80;21341;-80
2023/10/01 02:07:35;;;;;;;43.50;14.03;;;;;;;19.51;38.75;100171.42;1785033;80;21369;-80
2023/10/01 02:10:50;;;;;;;31.93;13.55;;;;;;;19.32;39.33;100158.73;1786027;80;21726;-80
2023/10/01 02:13:57;;;;;;;33.05;13.18;;;;;;;19.36;39.16;100169.66;1785842;80;21624;-79
2023/10/01 02:17:22;;;;;;;37.70;15.03;;;;;;;19.26;40.11;100161.91;1785462;80;21294;-80
2023/10/01 02:20:28;;;;;;;35.13;14.85;;;;;;;19.18;40.93;100158.08;1784368;80;21365;-80
2023/10/01 02:23:33;;;;;;;35.13;13.80;;;;;;;19.42;41.03;100160.38;1785509;80;21322;-81
2023/10/01 02:26:36;;;;;;;32.13;14.90;;;;;;;19.45;40.91;100164.06;1785429;80;21334;-81
2023/10/01 02:33:18;;;;;;;29.15;14.63;;;;;;;19.55;41.16;100156.00;1785415;80;21369;-81
2023/10/01 02:36:23;;;;;;;37.58;14.83;;;;;;;19.59;41.29;100159.98;1785572;80;21672;-81
2023/10/01 02:39:28;;;;;;;41.60;14.98;;;;;;;19.61;41.57;100156.45;1785591;80;22622;-81
2023/10/01 02:42:35;;;;;;;39.18;14.70;;;;;;;19.57;41.64;100159.39;1784373;80;21314;-81
2023/10/01 02:45:42;;;;;;;42.73;15.18;;;;;;;19.50;41.83;100164.19;1787174;80;21287;-81
2023/10/01 02:48:48;;;;;;;34.70;14.80;;;;;;;19.58;41.66;100164.40;1787429;80;21838;-81
2023/10/01 02:51:59;;;;;;;35.90;15.20;;;;;;;19.62;41.47;100162.87;1787450;80;21763;-80
2023/10/01 02:55:17;;;;;;;34.00;15.23;;;;;;;19.64;41.41;100165.69;1787220;80;21283;-81
2023/10/01 02:58:17;;;;;;;35.50;14.80;;;;;;;19.76;41.40;100167.62;1786981;80;21302;-81
2023/10/01 03:01:19;;;;;;;42.50;16.05;;;;;;;19.77;41.39;100165.17;1782698;80;21299;-81
2023/10/01 03:04:29;;;;;;;43.00;15.10;;;;;;;19.80;41.31;100161.36;1780055;80;21956;-81
2023/10/01 03:07:38;;;;;;;36.45;15.30;;;;;;;19.79;41.55;100162.45;1778832;80;21283;-80
2023/10/01 03:10:47;;;;;;;50.92;16.82;;;;;;;19.62;42.01;100158.16;1778830;80;21334;-80
2023/10/01 03:13:54;;;;;;;34.88;16.05;;;;;;;19.65;41.96;100156.28;1780224;80;21299;-80
2023/10/01 03:17:07;;;;;;;37.38;15.30;;;;;;;19.56;42.00;100159.61;1779762;80;21334;-80
2023/10/01 03:23:33;;;;;;;48.87;16.80;;;;;;;19.69;42.01;100161.36;1778690;80;21334;-80
2023/10/01 03:26:44;;;;;;;32.88;16.20;;;;;;;19.55;42.81;100156.00;1780384;80;21334;-80
2023/10/01 03:29:48;;;;;;;40.38;16.45;;;;;;;19.71;42.70;100148.08;1782170;80;21329;-81
2023/10/01 03:32:54;;;;;;;46.55;18.80;;;;;;;19.65;43.09;100142.95;1786724;80;21346;-80
2023/10/01 03:36:00;;;;;;;42.93;17.87;;;;;;;19.56;43.31;100141.58;1785088;80;21884;-80
2023/10/01 03:39:25;;;;;;;40.28;17.42;;;;;;;19.62;43.54;100139.30;1785347;80;21290;-81
2023/10/01 03:42:33;;;;;;;35.05;17.42;;;;;;;19.65;43.61;100141.56;1786636;80;21326;-81
2023/10/01 03:45:51;;;;;;;49.67;17.67;;;;;;;19.61;43.85;100143.13;1786732;80;21869;-80
2023/10/01 03:52:09;;;;;;;33.98;17.02;;;;;;;19.70;44.54;100153.33;1771413;80;21973;-80
2023/10/01 03:55:27;;;;;;;38.50;18.52;;;;;;;19.77;44.81;100154.08;1769537;81;21912;-80
2023/10/01 03:58:36;;;;;;;34.23;17.30;;;;;;;19.69;45.11;100157.20;1768545;81;21314;-80
2023/10/01 04:01:58;;;;;;;48.90;18.42;;;;;;;19.64;45.45;100153.21;1768634;81;21370;-79
2023/10/01 04:05:03;;;;;;;40.75;18.52;;;;;;;19.56;45.66;100152.13;1749898;81;21393;-80
2023/10/01 04:08:10;;;;;;;39.88;18.77;;;;;;;19.54;45.90;100150.70;1768549;81;21369;-80
2023/10/01 04:11:16;;;;;;;48.25;18.27;;;;;;;19.61;45.96;100165.32;1768814;81;21716;-80
2023/10/01 04:14:23;;;;;;;47.20;18.37;;;;;;;19.71;46.01;100160.56;1770273;81;21286;-80
2023/10/01 04:17:29;;;;;;;50.28;18.15;;;;;;;19.77;46.14;100165.17;1767822;81;21322;-79
2023/10/01 04:20:47;;;;;;;37.75;18.52;;;;;;;19.81;46.14;100166.39;1768310;81;21346;-79
2023/10/01 04:23:49;;;;;;;44.50;18.35;;;;;;;19.74;46.67;100167.03;1768276;81;21326;-80
2023/10/01 04:26:55;;;;;;;36.65;18.48;;;;;;;19.70;47.05;100163.05;1769649;81;21338;-80
2023/10/01 04:30:01;;;;;;;42.00;18.90;;;;;;;19.92;46.85;100164.15;1769605;81;21311;-79
2023/10/01 04:33:23;;;;;;;43.20;18.27;;;;;;;19.96;46.49;100163.13;1772652;81;21739;-81
2023/10/01 04:36:31;;;;;;;53.23;17.70;;;;;;;20.11;46.27;100160.16;1775910;80;21937;-82
2023/10/01 04:40:03;;;;;;;37.58;18.45;;;;;;;20.12;46.20;100160.45;1772240;81;21184;-80
2023/10/01 04:43:13;;;;;;;38.40;17.95;;;;;;;20.24;46.60;100164.62;1771630;81;21291;-80
2023/10/01 04:46:20;;;;;;;37.90;18.48;;;;;;;20.29;46.68;100168.05;1769634;81;21965;-81
2023/10/01 04:49:31;;;;;;;40.33;17.98;;;;;;;20.16;46.91;100158.04;1769581;81;21310;-81
2023/10/01 04:52:37;;;;;;;41.18;16.67;;;;;;;20.35;46.74;100158.19;1777907;80;21325;-81
2023/10/01 04:55:43;;;;;;;32.33;16.95;;;;;;;20.48;46.68;100150.17;1785884;80;21362;-80
2023/10/01 04:58:54;;;;;;;36.93;16.80;;;;;;;20.51;46.52;100160.78;1786437;80;21330;-81
2023/10/01 05:02:18;;;;;;;40.12;16.62;;;;;;;20.75;46.29;100160.70;1784839;80;21302;-81
2023/10/01 05:05:10;;;;;;;36.68;16.17;;;;;;;20.90;45.93;100159.10;1785984;80;21314;-81
2023/10/01 05:08:16;;;;;;;37.23;16.37;;;;;;;20.90;45.95;100160.49;1786297;80;21369;-81
2023/10/01 05:11:23;;;;;;;44.20;15.93;;;;;;;21.11;45.53;100156.70;1785454;80;22301;-81
2023/10/01 05:14:31;;;;;;;43.55;16.40;;;;;;;21.18;45.29;100157.41;1786029;80;21843;-81
2023/10/01 05:17:38;;;;;;;42.75;18.37;;;;;;;21.23;44.76;100157.50;1786365;80;21325;-81
2023/10/01 05:20:48;;;;;;;38.98;16.67;;;;;;;21.37;44.38;100159.45;1785837;80;21346;-81
2023/10/01 05:23:55;;;;;;;42.08;16.75;;;;;;;21.44;43.97;100157.34;1785891;80;21307;-81
2023/10/01 05:27:05;;;;;;;51.33;16.27;;;;;;;21.54;43.52;100161.68;1784687;80;21350;-81
2023/10/01 05:30:34;;;;;;;33.53;15.40;;;;;;;21.66;43.32;100163.84;1786270;80;21869;-81
2023/10/01 05:33:18;;;;;;;37.15;14.07;;;;;;;21.88;42.71;100158.92;1785146;80;21298;-81
2023/10/01 05:36:23;;;;;;;39.98;16.70;;;;;;;22.06;42.35;100151.66;1786571;80;21298;-81
2023/10/01 05:39:53;;;;;;;40.08;16.12;;;;;;;22.29;41.78;100146.45;1786483;80;21813;-81
2023/10/01 05:42:40;;;;;;;41.48;15.23;;;;;;;22.51;41.29;100146.47;1785027;80;21338;-80
2023/10/01 05:45:52;;;;;;;31.55;14.50;;;;;;;22.57;40.92;100144.59;1786861;80;21291;-80
2023/10/01 05:49:00;;;;;;;43.02;15.85;;;;;;;22.63;40.49;100149.98;1791778;79;21262;-82
2023/10/01 05:52:06;;;;;;;32.93;14.78;;;;;;;22.80;40.49;100152.69;1789297;80;21901;-81
2023/10/01 05:55:19;;;;;;;43.23;15.28;;;;;;;22.95;39.91;100145.07;1785434;80;21328;-81
2023/10/01 05:58:26;;;;;;;32.75;15.48;;;;;;;23.14;39.49;100150.58;1787082;80;21279;-81
2023/10/01 06:01:34;;;;;;;48.48;15.80;;;;;;;23.54;38.81;100150.70;1772948;80;21315;-81
2023/10/01 06:04:40;;;;;;;35.92;15.08;;;;;;;23.78;38.13;100148.97;1787179;80;21263;-81
2023/10/01 06:07:46;;;;;;;34.83;15.03;;;;;;;23.95;37.85;100144.08;1786750;80;21303;-81
2023/10/01 06:11:06;;;;;;;38.70;13.98;;;;;;;24.19;37.29;100144.51;1784786;80;21334;-81
2023/10/01 06:17:42;;;;;;;41.30;13.20;;;;;;;24.49;36.29;100145.25;1784690;80;21301;-81
2023/10/01 06:20:46;;;;;;;33.05;12.65;;;;;;;24.77;35.72;100144.53;1784834;80;21661;-82
2023/10/01 06:23:51;;;;;;;35.13;12.85;;;;;;;25.04;34.94;100146.58;1785407;80;21338;-81
2023/10/01 06:26:58;;;;;;;24.63;11.28;;;;;;;25.31;34.00;100147.76;1786159;80;21969;-81
2023/10/01 06:30:07;;;;;;;53.17;11.80;;;;;;;25.43;33.60;100139.11;1786567;80;21956;-82
2023/10/01 06:33:36;;;;;;;62.17;12.70;;;;;;;25.74;32.99;100139.41;1785910;80;21858;-81
2023/10/01 06:36:21;;;;;;;61.02;12.58;;;;;;;25.95;32.59;100139.41;1786485;80;21318;-81
2023/10/01 06:39:30;;;;;;;42.97;10.87;;;;;;;26.05;32.26;100141.34;1786924;80;21404;-81
2023/10/01 06:42:37;;;;;;;57.40;11.83;;;;;;;26.19;31.87;100140.47;1785877;80;21323;-82
2023/10/01 06:45:44;;;;;;;37.85;10.90;;;;;;;26.41;31.53;100126.13;1786626;80;21310;-81
2023/10/01 06:48:50;;;;;;;26.60;8.78;;;;;;;26.61;31.34;100130.00;1786823;80;21295;-81
2023/10/01 06:51:56;;;;;;;23.27;8.50;;;;;;;26.80;30.64;100126.83;1786809;80;21831;-82
2023/10/01 06:55:05;;;;;;;46.80;8.08;;;;;;;26.83;30.26;100136.64;1791390;79;21357;-81
2023/10/01 06:58:13;;;;;;;31.05;7.10;;;;;;;26.86;29.67;100136.05;1816340;79;21361;-82
2023/10/01 07:01:34;;;;;;;22.52;7.33;;;;;;;26.96;29.05;100134.59;1791060;80;21354;-82
2023/10/01 07:04:41;;;;;;;33.08;8.03;;;;;;;27.05;29.02;100137.62;1816595;79;21346;-82
2023/10/01 07:07:52;;;;;;;19.20;7.72;;;;;;;27.27;29.11;100139.48;1791000;80;21881;-81
2023/10/01 07:11:11;;;;;;;21.12;7.95;;;;;;;27.47;29.02;100137.09;1818014;79;21294;-82
2023/10/01 07:14:05;;;;;;;21.90;7.00;;;;;;;27.72;28.90;100139.73;1791541;80;21318;-81
2023/10/01 07:17:15;;;;;;;32.00;7.33;;;;;;;27.97;27.87;100139.23;1817891;77;21869;-82
2023/10/01 07:20:24;;;;;;;20.80;6.90;;;;;;;27.95;27.47;100140.10;1792585;80;21318;-81
2023/10/01 07:23:31;;;;;;;17.57;6.90;;;;;;;28.01;27.97;100140.31;1817554;79;21329;-82
2023/10/01 07:26:40;;;;;;;19.92;6.90;;;;;;;28.14;27.38;100143.84;1792601;80;21715;-82
2023/10/01 07:29:54;;;;;;;18.48;6.85;;;;;;;28.15;27.20;100139.05;1814448;78;21268;-82
2023/10/01 07:32:58;;;;;;;31.30;6.80;;;;;;;28.19;26.95;100141.55;1804353;79;21697;-82
2023/10/01 07:36:10;;;;;;;19.50;6.55;;;;;;;28.36;27.08;100132.66;1806570;79;21349;-82
2023/10/01 07:39:16;;;;;;;27.27;7.40;;;;;;;28.42;26.85;100137.07;1805868;79;21303;-82
2023/10/01 07:42:19;;;;;;;28.27;6.70;;;;;;;28.53;26.71;100131.61;1805326;79;21867;-81
2023/10/01 07:45:25;;;;;;;17.05;6.53;;;;;;;28.63;26.68;100125.85;1804934;79;21339;-80
2023/10/01 07:48:35;;;;;;;13.43;5.97;;;;;;;28.77;26.77;100130.18;1792056;80;21358;-81
2023/10/01 07:51:39;;;;;;;14.63;6.40;;;;;;;28.94;26.47;100130.52;1815613;79;21302;-81
2023/10/01 07:54:47;;;;;;;19.67;6.05;;;;;;;29.04;26.20;100133.79;1790001;80;21305;-80
2023/10/01 07:58:16;;;;;;;15.72;6.08;;;;;;;29.05;25.62;100127.01;1817234;79;21310;-81
2023/10/01 08:02:07;;;;;;;16.62;6.35;;;;;;;28.96;25.09;100126.02;1790159;80;21353;-81
2023/10/01 08:07:43;;;;;;;14.00;5.42;;;;;;;28.97;25.14;100123.45;1792012;80;21298;-82
2023/10/01 08:10:48;;;;;;;26.60;6.50;;;;;;;29.06;25.47;100123.62;1817181;79;21892;-80
2023/10/01 08:13:55;;;;;;;22.62;5.90;;;;;;;29.13;24.97;100116.48;1793469;80;21337;-81
2023/10/01 08:17:02;;;;;;;17.15;5.45;;;;;;;29.29;24.98;100117.07;1818652;79;21266;-81
2023/10/01 08:20:18;;;;;;;15.25;6.22;;;;;;;29.39;24.65;100115.50;1792377;80;21306;-80
2023/10/01 08:23:22;;;;;;;20.00;6.12;;;;;;;29.44;24.31;100115.41;1817289;79;21306;-80
2023/10/01 08:26:49;;;;;;;20.27;6.03;;;;;;;29.52;24.53;100101.21;1792043;80;21955;-80
2023/10/01 08:36:36;;;;;;;20.82;7.40;;;;;;;29.36;24.07;100098.36;1815954;79;21216;-81
2023/10/01 08:39:47;;;;;;;25.75;7.10;;;;;;;29.35;23.86;100095.29;1792406;80;21715;-81
2023/10/01 08:42:47;;;;;;;15.58;7.28;;;;;;;29.32;24.05;100091.13;1817314;79;21310;-80
2023/10/01 08:45:54;;;;;;;22.60;7.08;;;;;;;29.37;24.01;100089.62;1790468;79;21901;-81
2023/10/01 08:49:22;;;;;;;15.70;6.28;;;;;;;29.52;24.40;100087.95;1816152;79;21318;-81
2023/10/01 08:52:25;;;;;;;32.08;7.75;;;;;;;29.64;23.90;100083.84;1790890;80;21639;-81
2023/10/01 08:56:32;;;;;;;31.42;7.60;;;;;;;29.38;23.91;100081.44;1816779;79;21333;-81
2023/10/01 08:58:59;;;;;;;28.23;8.13;;;;;;;29.55;23.68;100078.09;1783329;80;21286;-81
2023/10/01 09:02:00;;;;;;;13.93;5.58;;;;;;;29.58;23.90;100081.69;1816220;77;21350;-81
2023/10/01 09:05:08;;;;;;;18.80;6.20;;;;;;;29.61;23.41;100082.48;1791611;80;21372;-81
2023/10/01 09:08:16;;;;;;;21.82;5.55;;;;;;;29.61;23.61;100072.62;1817350;79;21344;-81
2023/10/01 09:11:24;;;;;;;13.48;5.25;;;;;;;29.60;23.42;100075.19;1792188;80;21298;-80
2023/10/01 09:14:41;;;;;;;18.55;5.83;;;;;;;29.58;23.82;100076.62;1818484;79;21282;-80
2023/10/01 09:17:56;;;;;;;27.58;6.17;;;;;;;29.59;23.51;100074.06;1793563;80;21278;-81
2023/10/01 09:21:20;;;;;;;17.60;5.60;;;;;;;29.59;23.50;100075.47;1818666;79;21254;-81
2023/10/01 09:24:42;;;;;;;14.85;5.53;;;;;;;29.68;23.28;100066.00;1792567;80;21325;-81
2023/10/01 09:28:37;;;;;;;20.55;5.70;;;;;;;29.74;23.38;100067.60;1817578;79;22635;-81
2023/10/01 09:31:26;;;;;;;24.32;5.55;;;;;;;29.75;23.50;100066.45;1758542;80;21317;-80
2023/10/01 09:34:31;;;;;;;19.98;5.50;;;;;;;29.74;23.40;100061.97;1817582;79;21626;-81
2023/10/01 09:37:52;;;;;;;15.70;5.58;;;;;;;29.82;24.16;100067.44;1792510;80;21290;-80
2023/10/01 09:40:51;;;;;;;27.60;6.33;;;;;;;29.87;23.81;100067.92;1817395;79;21298;-81
2023/10/01 09:43:58;;;;;;;21.73;6.92;;;;;;;29.89;23.70;100062.83;1793226;80;21857;-81
2023/10/01 09:47:10;;;;;;;22.70;6.67;;;;;;;29.88;23.55;100059.17;1816173;79;21630;-81
2023/10/01 09:50:18;;;;;;;23.32;5.92;;;;;;;29.99;23.31;100058.39;1792910;80;21282;-81
2023/10/01 09:53:26;;;;;;;17.75;5.67;;;;;;;29.96;23.33;100058.43;1816705;79;21287;-81
2023/10/01 09:56:57;;;;;;;19.00;5.28;;;;;;;30.07;23.36;100052.61;1791816;80;21932;-81
2023/10/01 09:59:49;;;;;;;19.48;5.60;;;;;;;30.18;23.83;100052.69;1791127;80;21806;-81
2023/10/01 10:02:57;;;;;;;16.12;5.20;;;;;;;30.15;23.26;100044.27;1816614;79;21310;-81
2023/10/01 10:06:06;;;;;;;13.80;4.65;;;;;;;30.16;23.03;100040.87;1791233;80;21354;-81
2023/10/01 10:09:24;;;;;;;13.60;6.10;;;;;;;30.19;23.35;100038.84;1817853;79;21312;-81
2023/10/01 10:12:19;;;;;;;21.10;6.00;;;;;;;30.13;23.26;100041.48;1793326;80;21330;-81
2023/10/01 10:15:28;;;;;;;18.15;5.40;;;;;;;29.92;23.26;100034.82;1818387;79;21838;-81
2023/10/01 10:18:33;;;;;;;18.95;5.70;;;;;;;29.88;23.29;100033.80;1793604;80;21779;-81
2023/10/01 10:25:29;;;;;;;13.88;4.85;;;;;;;29.85;23.52;100026.53;1791426;80;21187;-81
2023/10/01 10:28:36;;;;;;;22.50;4.90;;;;;;;29.98;24.09;100028.53;1818104;79;21309;-81
2023/10/01 10:31:44;;;;;;;17.95;5.35;;;;;;;30.01;23.85;100024.49;1749095;80;21329;-81
2023/10/01 10:35:14;;;;;;;15.45;4.35;;;;;;;30.08;22.78;100019.03;1818115;79;21305;-81
2023/10/01 10:38:59;;;;;;;23.67;4.62;;;;;;;30.07;22.40;100013.97;1792314;80;22616;-81
2023/10/01 10:42:29;;;;;;;13.50;4.70;;;;;;;30.11;22.43;100009.34;1624318;88;21976;-81
2023/10/01 10:45:43;;;;;;;17.80;4.17;;;;;;;30.06;22.15;100010.86;1638195;87;21372;-81
2023/10/01 10:49:02;;;;;;;24.60;4.42;;;;;;;30.10;22.19;100011.08;1647927;87;21344;-81
2023/10/01 10:52:08;;;;;;;18.98;5.00;;;;;;;30.08;22.27;100007.17;1647354;87;21321;-81
2023/10/01 10:55:18;;;;;;;21.42;4.92;;;;;;;30.05;22.07;100005.80;1647293;87;21379;-81
2023/10/01 10:58:31;;;;;;;13.05;4.20;;;;;;;30.08;22.03;100004.35;1647212;87;21324;-82
2023/10/01 11:01:44;;;;;;;20.82;4.05;;;;;;;30.08;21.88;100001.53;1649820;86;21352;-81
2023/10/01 11:04:53;;;;;;;24.65;3.60;;;;;;;30.07;21.98;99997.05;1653332;86;21339;-81
2023/10/01 11:08:04;;;;;;;11.43;3.95;;;;;;;29.94;21.99;99997.30;1653444;86;21387;-82
2023/10/01 11:11:10;;;;;;;15.40;3.70;;;;;;;30.02;21.57;99995.75;1653473;86;21990;-81
2023/10/01 11:14:19;;;;;;;16.70;4.15;;;;;;;29.94;21.58;99997.88;1653551;86;21355;-81
2023/10/01 11:17:22;;;;;;;13.45;4.00;;;;;;;30.00;21.67;99986.75;1603610;87;21260;-81
2023/10/01 11:20:22;;;;;;;17.25;4.85;;;;;;;30.19;21.23;99991.73;1605596;88;21372;-82
2023/10/01 11:23:26;;;;;;;9.13;3.35;;;;;;;30.21;21.24;99980.98;1623325;88;21373;-81
2023/10/01 11:26:31;;;;;;;19.87;4.60;;;;;;;30.10;21.31;99979.48;1622040;88;21368;-81
2023/10/01 11:29:39;;;;;;;14.90;4.35;;;;;;;30.12;21.33;99973.55;1623361;88;21353;-81
2023/10/01 11:36:21;;;;;;;14.33;4.65;;;;;;;30.13;21.46;99974.66;1650679;87;21354;-81
2023/10/01 11:39:38;;;;;;;13.25;3.67;;;;;;;30.18;21.14;99973.14;1652115;87;21927;-81
2023/10/01 11:42:52;;;;;;;20.43;4.78;;;;;;;30.17;21.36;99979.94;1630950;86;21383;-82
2023/10/01 11:45:50;;;;;;;21.25;4.17;;;;;;;30.24;21.73;99976.68;1690171;84;21379;-82
2023/10/01 11:49:02;;;;;;;21.33;3.70;;;;;;;30.27;21.23;99969.84;1692090;84;21311;-82
2023/10/01 11:52:28;;;;;;;30.43;3.90;;;;;;;30.24;21.18;99971.88;1692008;84;22262;-81
2023/10/01 11:55:32;;;;;;;16.80;4.50;;;;;;;30.25;21.09;99959.47;1690916;84;21339;-82
2023/10/01 11:58:39;;;;;;;14.87;4.53;;;;;;;30.20;21.42;99965.77;1690110;84;21387;-81
2023/10/01 12:01:48;;;;;;;12.25;4.28;;;;;;;30.19;21.44;99964.94;1689939;84;21379;-82
2023/10/01 12:04:58;;;;;;;23.22;4.47;;;;;;;30.32;21.51;99959.59;1671989;84;21398;-82
2023/10/01 12:08:03;;;;;;;18.05;4.47;;;;;;;30.39;21.31;99962.23;1690148;84;21495;-82
2023/10/01 12:11:28;;;;;;;24.10;4.72;;;;;;;30.15;21.53;99960.23;1690438;84;21954;-81
2023/10/01 12:14:52;;;;;;;10.35;4.28;;;;;;;30.12;21.49;99949.00;1689283;84;21943;-81
2023/10/01 12:17:44;;;;;;;17.48;4.90;;;;;;;30.08;21.70;99949.37;1690821;84;21336;-82
2023/10/01 12:20:55;;;;;;;15.00;4.58;;;;;;;30.10;21.60;99951.28;1689558;84;21901;-81
2023/10/01 12:23:59;;;;;;;21.12;4.45;;;;;;;30.13;21.56;99949.28;1691497;84;21340;-82
2023/10/01 12:27:07;;;;;;;17.27;4.15;;;;;;;30.26;21.60;99949.84;1690485;84;21922;-81
2023/10/01 12:30:30;;;;;;;11.38;4.25;;;;;;;30.18;21.63;99944.94;1691576;84;21340;-81
2023/10/01 12:33:43;;;;;;;29.63;4.40;;;;;;;30.13;21.72;99946.47;1691397;84;21336;-82
2023/10/01 12:36:51;;;;;;;20.25;4.58;;;;;;;30.08;21.70;99938.66;1691735;84;21331;-82
2023/10/01 12:40:14;;;;;;;14.58;4.30;;;;;;;30.21;21.69;99940.09;1691600;84;21336;-82
2023/10/01 12:43:03;;;;;;;28.62;4.87;;;;;;;30.20;21.76;99936.98;1691554;84;21353;-82
2023/10/01 12:46:13;;;;;;;19.10;4.58;;;;;;;30.24;21.78;99938.60;1693168;84;21341;-81
2023/10/01 12:49:19;;;;;;;13.13;4.20;;;;;;;30.14;21.93;99924.16;1692269;84;21403;-81
2023/10/01 12:52:30;;;;;;;15.80;4.53;;;;;;;30.21;21.79;99937.27;1693861;84;21226;-82
2023/10/01 12:55:16;;;;;;;25.62;5.58;;;;;;;30.20;21.60;99928.52;1691689;84;21920;-83
2023/10/01 12:58:35;;;;;;;19.95;4.50;;;;;;;30.08;21.93;99928.22;1692347;84;21361;-82
2023/10/01 13:01:37;;;;;;;19.05;5.12;;;;;;;30.11;21.72;99920.52;1679511;84;21409;-82
2023/10/01 13:04:38;;;;;;;21.52;4.80;;;;;;;30.19;21.84;99926.86;1692997;84;21338;-83
2023/10/01 13:07:45;;;;;;;16.65;4.85;;;;;;;29.87;22.05;99919.34;1691801;84;21349;-82
2023/10/01 13:10:51;;;;;;;23.18;4.58;;;;;;;29.67;22.30;99914.14;1693147;84;21908;-82
2023/10/01 13:13:58;;;;;;;15.50;4.35;;;;;;;29.88;22.22;99912.58;1693292;84;21873;-82
2023/10/01 13:17:03;;;;;;;17.95;4.95;;;;;;;29.79;22.06;99913.89;1693062;84;21322;-81
2023/10/01 13:21:12;;;;;;;16.20;5.45;;;;;;;29.72;22.36;99906.98;1692061;84;21350;-81
2023/10/01 13:23:28;;;;;;;15.10;4.67;;;;;;;29.69;22.35;99909.02;1667299;84;21342;-81
2023/10/01 13:26:38;;;;;;;24.43;5.05;;;;;;;29.56;22.60;99907.88;1691658;84;21920;-81
2023/10/01 13:29:49;;;;;;;18.75;4.75;;;;;;;29.59;22.60;99903.02;1692397;84;21345;-81
2023/10/01 13:36:23;;;;;;;22.13;5.75;;;;;;;29.68;22.67;99901.13;1692990;84;21341;-81
2023/10/01 13:39:44;;;;;;;21.10;4.90;;;;;;;29.60;22.67;99897.66;1692428;84;21577;-81
2023/10/01 14:09:54;;;;;;;31.75;5.60;;;;;;;29.13;23.54;99877.14;1672338;84;21972;-81
2023/10/01 14:12:56;;;;;;;48.52;6.45;;;;;;;29.10;23.53;99877.75;1666062;85;21351;-82
2023/10/01 14:16:12;;;;;;;36.08;5.12;;;;;;;29.02;23.56;99880.69;1674918;85;21857;-82
2023/10/01 14:19:18;;;;;;;23.70;4.78;;;;;;;28.96;23.65;99883.34;1684736;85;21342;-81
2023/10/01 14:22:24;;;;;;;19.12;4.03;;;;;;;28.90;23.78;99878.09;1675169;84;21325;-81
2023/10/01 14:25:30;;;;;;;19.60;4.62;;;;;;;28.91;23.71;99876.37;1654157;85;21352;-81
2023/10/01 14:28:36;;;;;;;19.55;4.67;;;;;;;28.90;23.76;99878.92;1658979;86;21379;-81
2023/10/01 14:31:48;;;;;;;31.10;5.65;;;;;;;28.94;23.78;99876.34;1664752;85;21871;-81
2023/10/01 14:34:44;;;;;;;50.05;7.28;;;;;;;28.88;23.92;99878.38;1684753;85;21318;-81
2023/10/01 14:37:55;;;;;;;42.65;6.65;;;;;;;28.79;23.95;99873.19;1683745;85;21366;-81
2023/10/01 14:41:01;;;;;;;37.20;6.53;;;;;;;28.74;23.98;99872.70;1683351;85;21346;-81
2023/10/01 14:44:07;;;;;;;35.90;5.55;;;;;;;28.81;24.03;99872.91;1674487;83;21316;-81
2023/10/01 14:47:17;;;;;;;104.17;7.35;;;;;;;28.80;24.04;99872.65;1671286;84;21287;-81
2023/10/01 14:50:22;;;;;;;78.47;7.60;;;;;;;28.65;24.30;99878.77;1661537;86;22075;-81
2023/10/01 14:53:36;;;;;;;85.57;8.20;;;;;;;28.41;24.61;99876.06;1662681;86;22528;-81
2023/10/01 14:56:36;;;;;;;100.38;9.23;;;;;;;28.27;24.88;99882.99;1670093;84;21698;-82
2023/10/01 14:59:46;;;;;;;47.05;6.87;;;;;;;28.12;25.07;99884.63;1665158;84;21361;-81
2023/10/01 15:02:53;;;;;;;57.95;6.10;;;;;;;27.98;25.31;99886.52;1657766;85;21724;-81
2023/10/01 15:06:01;;;;;;;37.00;6.20;;;;;;;27.94;25.48;99886.85;1654913;86;21746;-81
2023/10/01 15:09:11;;;;;;;23.35;5.35;;;;;;;27.96;25.61;99884.59;1654998;86;21350;-81
2023/10/01 15:12:26;;;;;;;29.00;7.03;;;;;;;27.85;25.66;99885.28;1654725;86;22019;-81
2023/10/01 15:15:24;;;;;;;29.12;7.50;;;;;;;27.78;25.56;99886.80;1671674;85;21862;-81
2023/10/01 15:18:32;;;;;;;28.73;8.53;;;;;;;27.74;25.49;99893.58;1685725;85;21295;-81
2023/10/01 15:21:39;;;;;;;47.53;9.35;;;;;;;27.55;25.63;99889.29;1685383;85;21282;-81
2023/10/01 15:24:43;;;;;;;39.35;9.03;;;;;;;27.35;25.81;99890.94;1685496;85;21634;-81
2023/10/01 15:27:51;;;;;;;41.33;9.63;;;;;;;27.36;25.74;99885.58;1685391;85;21196;-81
2023/10/01 15:31:01;;;;;;;31.68;9.18;;;;;;;27.28;25.81;99888.46;1685631;85;21295;-81